sensor_id;sensor_type;location;lat;lon;timestamp;P1;durP1;ratioP1;P2;durP2;ratioP2
50853;SDS011;44154;45.506;-122.806;2023-04-30T00:01:15;8.20;;;2.25;;
50853;SDS011;44154;45.506;-122.806;2023-04-30T00:03:41;6.80;;;2.17;;
50853;SDS011;44154;45.506;-122.806;2023-04-30T00:06:07;8.25;;;2.78;;
50853;SDS011;44154;45.506;-122.806;2023-04-30T00:08:33;7.07;;;2.60;;
50853;SDS011;44154;45.506;-122.806;2023-04-30T00:11:00;6.47;;;2.45;;
50853;SDS011;44154;45.506;-122.806;2023-04-30T00:13:26;6.78;;;2.08;;
50853;SDS011;44154;45.506;-122.806;2023-04-30T00:15:52;6.65;;;2.58;;
50853;SDS011;44154;45.506;-122.806;2023-04-30T00:18:18;8.80;;;2.55;;
50853;SDS011;44154;45.506;-122.806;2023-04-30T00:20:44;7.85;;;2.40;;
50853;SDS011;44154;45.506;-122.806;2023-04-30T00:23:10;7.43;;;2.20;;
50853;SDS011;44154;45.506;-122.806;2023-04-30T00:25:36;30.67;;;2.70;;
50853;SDS011;44154;45.506;-122.806;2023-04-30T00:28:03;8.93;;;2.53;;
50853;SDS011;44154;45.506;-122.806;2023-04-30T00:30:29;8.90;;;2.20;;
50853;SDS011;44154;45.506;-122.806;2023-04-30T00:32:56;10.02;;;2.72;;
50853;SDS011;44154;45.506;-122.806;2023-04-30T00:35:22;7.95;;;2.22;;
50853;SDS011;44154;45.506;-122.806;2023-04-30T00:37:48;9.70;;;2.83;;
50853;SDS011;44154;45.506;-122.806;2023-04-30T00:40:14;9.93;;;2.70;;
50853;SDS011;44154;45.506;-122.806;2023-04-30T00:42:41;12.02;;;3.20;;
50853;SDS011;44154;45.506;-122.806;2023-04-30T00:45:07;8.48;;;2.67;;
50853;SDS011;44154;45.506;-122.806;2023-04-30T00:47:33;8.90;;;2.72;;
50853;SDS011;44154;45.506;-122.806;2023-04-30T00:50:00;10.07;;;2.97;;
50853;SDS011;44154;45.506;-122.806;2023-04-30T00:52:26;11.10;;;3.33;;
50853;SDS011;44154;45.506;-122.806;2023-04-30T00:54:53;7.68;;;2.45;;
50853;SDS011;44154;45.506;-122.806;2023-04-30T00:57:20;8.63;;;2.60;;
50853;SDS011;44154;45.506;-122.806;2023-04-30T00:59:47;7.72;;;2.60;;
50853;SDS011;44154;45.506;-122.806;2023-04-30T01:02:13;8.98;;;2.92;;
50853;SDS011;44154;45.506;-122.806;2023-04-30T01:04:40;7.30;;;2.05;;
50853;SDS011;44154;45.506;-122.806;2023-04-30T01:07:06;8.82;;;2.60;;
50853;SDS011;44154;45.506;-122.806;2023-04-30T01:09:32;7.68;;;2.70;;
50853;SDS011;44154;45.506;-122.806;2023-04-30T01:12:03;7.90;;;2.88;;
50853;SDS011;44154;45.506;-122.806;2023-04-30T01:17:31;11.63;;;3.05;;
50853;SDS011;44154;45.506;-122.806;2023-04-30T01:20:03;9.55;;;2.13;;
50853;SDS011;44154;45.506;-122.806;2023-04-30T01:22:42;8.93;;;2.47;;
50853;SDS011;44154;45.506;-122.806;2023-04-30T01:28:08;9.45;;;2.58;;
50853;SDS011;44154;45.506;-122.806;2023-04-30T01:30:35;8.32;;;3.15;;
50853;SDS011;44154;45.506;-122.806;2023-04-30T01:33:02;12.10;;;3.42;;
50853;SDS011;44154;45.506;-122.806;2023-04-30T01:39:01;8.77;;;2.97;;
50853;SDS011;44154;45.506;-122.806;2023-04-30T01:47:01;7.88;;;2.58;;
50853;SDS011;44154;45.506;-122.806;2023-04-30T01:49:49;6.50;;;2.15;;
50853;SDS011;44154;45.506;-122.806;2023-04-30T01:55:23;7.20;;;2.45;;
50853;SDS011;44154;45.506;-122.806;2023-04-30T01:57:56;8.82;;;2.40;;
50853;SDS011;44154;45.506;-122.806;2023-04-30T02:00:24;6.82;;;2.25;;
50853;SDS011;44154;45.506;-122.806;2023-04-30T02:02:51;8.25;;;2.47;;
50853;SDS011;44154;45.506;-122.806;2023-04-30T02:05:18;9.90;;;2.75;;
50853;SDS011;44154;45.506;-122.806;2023-04-30T02:07:44;7.68;;;2.40;;
50853;SDS011;44154;45.506;-122.806;2023-04-30T02:10:12;6.03;;;2.17;;
50853;SDS011;44154;45.506;-122.806;2023-04-30T02:12:39;6.90;;;2.45;;
50853;SDS011;44154;45.506;-122.806;2023-04-30T02:15:06;6.60;;;2.00;;
50853;SDS011;44154;45.506;-122.806;2023-04-30T02:17:32;8.50;;;2.80;;
50853;SDS011;44154;45.506;-122.806;2023-04-30T02:19:59;10.35;;;2.83;;
50853;SDS011;44154;45.506;-122.806;2023-04-30T02:22:25;9.32;;;2.67;;
50853;SDS011;44154;45.506;-122.806;2023-04-30T02:24:52;6.40;;;2.70;;
50853;SDS011;44154;45.506;-122.806;2023-04-30T02:27:22;9.63;;;3.03;;
50853;SDS011;44154;45.506;-122.806;2023-04-30T02:29:50;10.75;;;2.90;;
50853;SDS011;44154;45.506;-122.806;2023-04-30T02:32:16;8.38;;;3.00;;
50853;SDS011;44154;45.506;-122.806;2023-04-30T02:34:43;8.55;;;2.30;;
50853;SDS011;44154;45.506;-122.806;2023-04-30T02:37:10;9.52;;;2.45;;
50853;SDS011;44154;45.506;-122.806;2023-04-30T02:39:36;7.40;;;2.60;;
50853;SDS011;44154;45.506;-122.806;2023-04-30T02:42:02;9.02;;;2.20;;
50853;SDS011;44154;45.506;-122.806;2023-04-30T02:44:31;10.35;;;2.75;;
50853;SDS011;44154;45.506;-122.806;2023-04-30T02:46:58;7.55;;;2.40;;
50853;SDS011;44154;45.506;-122.806;2023-04-30T02:49:24;8.15;;;2.97;;
50853;SDS011;44154;45.506;-122.806;2023-04-30T02:51:51;8.60;;;2.10;;
50853;SDS011;44154;45.506;-122.806;2023-04-30T02:54:17;7.65;;;2.53;;
50853;SDS011;44154;45.506;-122.806;2023-04-30T02:56:44;7.35;;;2.30;;
50853;SDS011;44154;45.506;-122.806;2023-04-30T02:59:11;8.88;;;3.15;;
50853;SDS011;44154;45.506;-122.806;2023-04-30T03:01:37;5.82;;;1.92;;
50853;SDS011;44154;45.506;-122.806;2023-04-30T03:04:04;7.80;;;2.45;;
50853;SDS011;44154;45.506;-122.806;2023-04-30T03:06:30;7.50;;;2.50;;
50853;SDS011;44154;45.506;-122.806;2023-04-30T03:08:57;7.68;;;2.63;;
50853;SDS011;44154;45.506;-122.806;2023-04-30T03:11:24;7.05;;;2.20;;
50853;SDS011;44154;45.506;-122.806;2023-04-30T03:13:50;7.70;;;2.63;;
50853;SDS011;44154;45.506;-122.806;2023-04-30T03:16:17;7.78;;;2.08;;
50853;SDS011;44154;45.506;-122.806;2023-04-30T03:18:44;8.32;;;2.53;;
50853;SDS011;44154;45.506;-122.806;2023-04-30T03:21:11;6.82;;;2.35;;
50853;SDS011;44154;45.506;-122.806;2023-04-30T03:23:38;6.57;;;2.00;;
50853;SDS011;44154;45.506;-122.806;2023-04-30T03:26:04;9.73;;;3.13;;
50853;SDS011;44154;45.506;-122.806;2023-04-30T03:28:30;5.80;;;2.17;;
50853;SDS011;44154;45.506;-122.806;2023-04-30T03:30:57;7.97;;;2.55;;
50853;SDS011;44154;45.506;-122.806;2023-04-30T03:33:23;7.07;;;2.40;;
50853;SDS011;44154;45.506;-122.806;2023-04-30T03:35:50;7.05;;;2.42;;
50853;SDS011;44154;45.506;-122.806;2023-04-30T03:38:16;6.20;;;2.40;;
50853;SDS011;44154;45.506;-122.806;2023-04-30T03:40:42;5.95;;;2.33;;
50853;SDS011;44154;45.506;-122.806;2023-04-30T03:43:09;7.70;;;2.40;;
50853;SDS011;44154;45.506;-122.806;2023-04-30T03:45:36;9.27;;;2.92;;
50853;SDS011;44154;45.506;-122.806;2023-04-30T03:48:02;6.50;;;2.10;;
50853;SDS011;44154;45.506;-122.806;2023-04-30T03:50:29;7.57;;;2.55;;
50853;SDS011;44154;45.506;-122.806;2023-04-30T03:52:55;7.32;;;2.33;;
50853;SDS011;44154;45.506;-122.806;2023-04-30T03:55:21;6.50;;;2.50;;
50853;SDS011;44154;45.506;-122.806;2023-04-30T03:57:48;5.70;;;2.50;;
50853;SDS011;44154;45.506;-122.806;2023-04-30T04:00:14;6.60;;;2.75;;
50853;SDS011;44154;45.506;-122.806;2023-04-30T04:02:41;5.80;;;2.20;;
50853;SDS011;44154;45.506;-122.806;2023-04-30T04:05:07;8.55;;;2.67;;
50853;SDS011;44154;45.506;-122.806;2023-04-30T04:07:34;7.20;;;2.13;;
50853;SDS011;44154;45.506;-122.806;2023-04-30T04:10:00;5.13;;;2.20;;
50853;SDS011;44154;45.506;-122.806;2023-04-30T04:12:26;7.50;;;2.28;;
50853;SDS011;44154;45.506;-122.806;2023-04-30T04:14:53;5.25;;;2.08;;
50853;SDS011;44154;45.506;-122.806;2023-04-30T04:17:19;7.65;;;2.58;;
50853;SDS011;44154;45.506;-122.806;2023-04-30T04:19:45;7.72;;;2.40;;
50853;SDS011;44154;45.506;-122.806;2023-04-30T04:22:11;7.43;;;2.42;;
50853;SDS011;44154;45.506;-122.806;2023-04-30T04:24:37;5.55;;;2.17;;
50853;SDS011;44154;45.506;-122.806;2023-04-30T04:27:03;5.97;;;1.95;;
50853;SDS011;44154;45.506;-122.806;2023-04-30T04:29:30;6.63;;;2.53;;
50853;SDS011;44154;45.506;-122.806;2023-04-30T04:31:56;6.30;;;2.40;;
50853;SDS011;44154;45.506;-122.806;2023-04-30T04:34:24;6.63;;;2.13;;
50853;SDS011;44154;45.506;-122.806;2023-04-30T04:36:51;6.68;;;2.25;;
50853;SDS011;44154;45.506;-122.806;2023-04-30T04:39:17;5.18;;;2.08;;
50853;SDS011;44154;45.506;-122.806;2023-04-30T04:41:43;7.95;;;2.75;;
50853;SDS011;44154;45.506;-122.806;2023-04-30T04:44:09;7.28;;;2.72;;
50853;SDS011;44154;45.506;-122.806;2023-04-30T04:46:35;6.40;;;2.58;;
50853;SDS011;44154;45.506;-122.806;2023-04-30T04:49:06;7.70;;;2.58;;
50853;SDS011;44154;45.506;-122.806;2023-04-30T04:51:32;8.00;;;2.65;;
50853;SDS011;44154;45.506;-122.806;2023-04-30T04:53:59;7.03;;;2.63;;
50853;SDS011;44154;45.506;-122.806;2023-04-30T04:56:25;5.20;;;2.13;;
50853;SDS011;44154;45.506;-122.806;2023-04-30T04:58:51;5.45;;;2.22;;
50853;SDS011;44154;45.506;-122.806;2023-04-30T05:01:18;7.07;;;2.60;;
50853;SDS011;44154;45.506;-122.806;2023-04-30T05:03:44;6.68;;;2.63;;
50853;SDS011;44154;45.506;-122.806;2023-04-30T05:06:10;5.93;;;2.10;;
50853;SDS011;44154;45.506;-122.806;2023-04-30T05:08:36;6.18;;;2.70;;
50853;SDS011;44154;45.506;-122.806;2023-04-30T05:11:02;6.63;;;2.38;;
50853;SDS011;44154;45.506;-122.806;2023-04-30T05:13:29;5.97;;;2.30;;
50853;SDS011;44154;45.506;-122.806;2023-04-30T05:15:55;6.95;;;2.40;;
50853;SDS011;44154;45.506;-122.806;2023-04-30T05:18:21;5.70;;;2.45;;
50853;SDS011;44154;45.506;-122.806;2023-04-30T05:20:47;7.50;;;2.45;;
50853;SDS011;44154;45.506;-122.806;2023-04-30T05:23:14;7.15;;;2.55;;
50853;SDS011;44154;45.506;-122.806;2023-04-30T05:25:40;5.93;;;2.38;;
50853;SDS011;44154;45.506;-122.806;2023-04-30T05:28:07;5.82;;;2.40;;
50853;SDS011;44154;45.506;-122.806;2023-04-30T05:30:33;6.75;;;2.67;;
50853;SDS011;44154;45.506;-122.806;2023-04-30T05:32:59;6.53;;;2.55;;
50853;SDS011;44154;45.506;-122.806;2023-04-30T05:35:25;6.78;;;2.45;;
50853;SDS011;44154;45.506;-122.806;2023-04-30T05:37:52;6.18;;;2.13;;
50853;SDS011;44154;45.506;-122.806;2023-04-30T05:40:18;6.90;;;3.05;;
50853;SDS011;44154;45.506;-122.806;2023-04-30T05:42:44;6.00;;;2.63;;
50853;SDS011;44154;45.506;-122.806;2023-04-30T05:45:11;6.90;;;2.45;;
50853;SDS011;44154;45.506;-122.806;2023-04-30T05:47:39;7.82;;;2.78;;
50853;SDS011;44154;45.506;-122.806;2023-04-30T05:50:06;6.65;;;2.47;;
50853;SDS011;44154;45.506;-122.806;2023-04-30T05:52:32;6.18;;;2.30;;
50853;SDS011;44154;45.506;-122.806;2023-04-30T05:54:58;6.55;;;2.17;;
50853;SDS011;44154;45.506;-122.806;2023-04-30T05:57:25;5.10;;;1.88;;
50853;SDS011;44154;45.506;-122.806;2023-04-30T05:59:51;5.07;;;2.25;;
50853;SDS011;44154;45.506;-122.806;2023-04-30T06:02:18;7.10;;;2.58;;
50853;SDS011;44154;45.506;-122.806;2023-04-30T06:04:44;5.22;;;2.22;;
50853;SDS011;44154;45.506;-122.806;2023-04-30T06:07:12;7.05;;;2.63;;
50853;SDS011;44154;45.506;-122.806;2023-04-30T06:09:38;7.03;;;2.63;;
50853;SDS011;44154;45.506;-122.806;2023-04-30T06:12:05;6.38;;;2.30;;
50853;SDS011;44154;45.506;-122.806;2023-04-30T06:14:31;7.97;;;3.08;;
50853;SDS011;44154;45.506;-122.806;2023-04-30T06:16:57;7.60;;;2.70;;
50853;SDS011;44154;45.506;-122.806;2023-04-30T06:19:23;5.43;;;2.20;;
50853;SDS011;44154;45.506;-122.806;2023-04-30T06:21:49;9.05;;;2.38;;
50853;SDS011;44154;45.506;-122.806;2023-04-30T06:24:15;6.00;;;2.40;;
50853;SDS011;44154;45.506;-122.806;2023-04-30T06:26:42;7.18;;;2.17;;
50853;SDS011;44154;45.506;-122.806;2023-04-30T06:29:08;6.78;;;2.38;;
50853;SDS011;44154;45.506;-122.806;2023-04-30T06:31:34;6.70;;;2.67;;
50853;SDS011;44154;45.506;-122.806;2023-04-30T06:34:00;6.80;;;2.78;;
50853;SDS011;44154;45.506;-122.806;2023-04-30T06:36:26;7.28;;;2.70;;
50853;SDS011;44154;45.506;-122.806;2023-04-30T06:38:52;7.85;;;3.08;;
50853;SDS011;44154;45.506;-122.806;2023-04-30T06:41:19;6.75;;;2.55;;
50853;SDS011;44154;45.506;-122.806;2023-04-30T06:43:45;7.57;;;2.70;;
50853;SDS011;44154;45.506;-122.806;2023-04-30T06:46:11;7.05;;;2.60;;
50853;SDS011;44154;45.506;-122.806;2023-04-30T06:48:39;6.82;;;2.42;;
50853;SDS011;44154;45.506;-122.806;2023-04-30T06:51:05;6.50;;;2.70;;
50853;SDS011;44154;45.506;-122.806;2023-04-30T06:53:31;7.00;;;2.50;;
50853;SDS011;44154;45.506;-122.806;2023-04-30T06:55:57;6.40;;;2.45;;
50853;SDS011;44154;45.506;-122.806;2023-04-30T06:58:24;6.53;;;2.47;;
50853;SDS011;44154;45.506;-122.806;2023-04-30T07:00:50;6.85;;;2.80;;
50853;SDS011;44154;45.506;-122.806;2023-04-30T07:03:16;5.72;;;2.47;;
50853;SDS011;44154;45.506;-122.806;2023-04-30T07:05:43;8.27;;;3.00;;
50853;SDS011;44154;45.506;-122.806;2023-04-30T07:08:09;7.35;;;3.05;;
50853;SDS011;44154;45.506;-122.806;2023-04-30T07:10:35;8.95;;;3.80;;
50853;SDS011;44154;45.506;-122.806;2023-04-30T07:13:01;8.27;;;2.95;;
50853;SDS011;44154;45.506;-122.806;2023-04-30T07:15:27;6.93;;;3.03;;
50853;SDS011;44154;45.506;-122.806;2023-04-30T07:17:54;7.63;;;2.97;;
50853;SDS011;44154;45.506;-122.806;2023-04-30T07:20:20;9.82;;;3.75;;
50853;SDS011;44154;45.506;-122.806;2023-04-30T07:22:46;6.63;;;2.83;;
50853;SDS011;44154;45.506;-122.806;2023-04-30T07:25:12;7.05;;;2.58;;
50853;SDS011;44154;45.506;-122.806;2023-04-30T07:27:39;6.97;;;2.80;;
50853;SDS011;44154;45.506;-122.806;2023-04-30T07:30:05;7.28;;;2.90;;
50853;SDS011;44154;45.506;-122.806;2023-04-30T07:32:36;6.57;;;2.70;;
50853;SDS011;44154;45.506;-122.806;2023-04-30T07:35:03;7.57;;;2.72;;
50853;SDS011;44154;45.506;-122.806;2023-04-30T07:37:29;7.15;;;2.88;;
50853;SDS011;44154;45.506;-122.806;2023-04-30T07:39:55;6.93;;;2.53;;
50853;SDS011;44154;45.506;-122.806;2023-04-30T07:42:21;8.35;;;2.80;;
50853;SDS011;44154;45.506;-122.806;2023-04-30T07:44:48;6.90;;;2.40;;
50853;SDS011;44154;45.506;-122.806;2023-04-30T07:47:14;6.80;;;2.65;;
50853;SDS011;44154;45.506;-122.806;2023-04-30T07:49:41;6.40;;;2.60;;
50853;SDS011;44154;45.506;-122.806;2023-04-30T07:52:08;6.00;;;2.28;;
50853;SDS011;44154;45.506;-122.806;2023-04-30T07:54:36;7.05;;;2.53;;
50853;SDS011;44154;45.506;-122.806;2023-04-30T07:57:04;7.75;;;2.45;;
50853;SDS011;44154;45.506;-122.806;2023-04-30T07:59:31;6.38;;;2.50;;
50853;SDS011;44154;45.506;-122.806;2023-04-30T08:01:58;5.97;;;2.15;;
50853;SDS011;44154;45.506;-122.806;2023-04-30T08:04:24;8.23;;;3.08;;
50853;SDS011;44154;45.506;-122.806;2023-04-30T08:06:50;5.80;;;2.10;;
50853;SDS011;44154;45.506;-122.806;2023-04-30T08:09:16;5.00;;;2.22;;
50853;SDS011;44154;45.506;-122.806;2023-04-30T08:11:42;6.93;;;2.42;;
50853;SDS011;44154;45.506;-122.806;2023-04-30T08:14:09;6.13;;;2.38;;
50853;SDS011;44154;45.506;-122.806;2023-04-30T08:16:35;5.35;;;2.28;;
50853;SDS011;44154;45.506;-122.806;2023-04-30T08:19:01;6.97;;;2.42;;
50853;SDS011;44154;45.506;-122.806;2023-04-30T08:21:28;7.38;;;2.47;;
50853;SDS011;44154;45.506;-122.806;2023-04-30T08:23:54;4.90;;;2.28;;
50853;SDS011;44154;45.506;-122.806;2023-04-30T08:26:21;5.93;;;2.55;;
50853;SDS011;44154;45.506;-122.806;2023-04-30T08:28:47;6.10;;;2.42;;
50853;SDS011;44154;45.506;-122.806;2023-04-30T08:31:14;6.05;;;2.22;;
50853;SDS011;44154;45.506;-122.806;2023-04-30T08:33:41;5.50;;;2.05;;
50853;SDS011;44154;45.506;-122.806;2023-04-30T08:36:08;7.50;;;2.65;;
50853;SDS011;44154;45.506;-122.806;2023-04-30T08:38:34;6.07;;;2.72;;
50853;SDS011;44154;45.506;-122.806;2023-04-30T08:41:13;4.72;;;1.80;;
50853;SDS011;44154;45.506;-122.806;2023-04-30T08:43:43;6.72;;;2.50;;
50853;SDS011;44154;45.506;-122.806;2023-04-30T08:46:10;4.47;;;2.20;;
50853;SDS011;44154;45.506;-122.806;2023-04-30T08:48:41;5.07;;;2.28;;
50853;SDS011;44154;45.506;-122.806;2023-04-30T08:51:07;5.40;;;2.40;;
50853;SDS011;44154;45.506;-122.806;2023-04-30T08:53:34;6.18;;;2.33;;
50853;SDS011;44154;45.506;-122.806;2023-04-30T08:56:03;5.35;;;2.10;;
50853;SDS011;44154;45.506;-122.806;2023-04-30T08:58:29;5.32;;;2.10;;
50853;SDS011;44154;45.506;-122.806;2023-04-30T09:00:58;4.22;;;1.95;;
50853;SDS011;44154;45.506;-122.806;2023-04-30T09:03:26;6.15;;;2.42;;
50853;SDS011;44154;45.506;-122.806;2023-04-30T09:05:53;5.43;;;2.10;;
50853;SDS011;44154;45.506;-122.806;2023-04-30T09:08:39;5.45;;;2.35;;
50853;SDS011;44154;45.506;-122.806;2023-04-30T09:11:24;3.72;;;2.13;;
50853;SDS011;44154;45.506;-122.806;2023-04-30T09:13:53;5.63;;;2.10;;
50853;SDS011;44154;45.506;-122.806;2023-04-30T09:16:21;5.45;;;2.40;;
50853;SDS011;44154;45.506;-122.806;2023-04-30T09:18:48;5.60;;;2.40;;
50853;SDS011;44154;45.506;-122.806;2023-04-30T09:21:15;5.03;;;2.08;;
50853;SDS011;44154;45.506;-122.806;2023-04-30T09:23:58;6.45;;;2.60;;
50853;SDS011;44154;45.506;-122.806;2023-04-30T09:26:46;5.38;;;2.10;;
50853;SDS011;44154;45.506;-122.806;2023-04-30T09:29:13;5.30;;;2.05;;
50853;SDS011;44154;45.506;-122.806;2023-04-30T09:31:42;5.15;;;1.95;;
50853;SDS011;44154;45.506;-122.806;2023-04-30T09:34:11;4.75;;;2.15;;
50853;SDS011;44154;45.506;-122.806;2023-04-30T09:36:50;4.40;;;2.03;;
50853;SDS011;44154;45.506;-122.806;2023-04-30T09:39:20;5.15;;;2.03;;
50853;SDS011;44154;45.506;-122.806;2023-04-30T09:41:46;4.68;;;1.75;;
50853;SDS011;44154;45.506;-122.806;2023-04-30T09:44:35;4.25;;;2.08;;
50853;SDS011;44154;45.506;-122.806;2023-04-30T09:47:02;3.65;;;1.85;;
50853;SDS011;44154;45.506;-122.806;2023-04-30T09:49:29;4.35;;;2.00;;
50853;SDS011;44154;45.506;-122.806;2023-04-30T09:51:56;3.88;;;1.90;;
50853;SDS011;44154;45.506;-122.806;2023-04-30T09:54:28;4.97;;;1.73;;
50853;SDS011;44154;45.506;-122.806;2023-04-30T09:56:59;4.60;;;1.80;;
50853;SDS011;44154;45.506;-122.806;2023-04-30T09:59:33;4.07;;;1.75;;
50853;SDS011;44154;45.506;-122.806;2023-04-30T10:02:01;4.75;;;1.95;;
50853;SDS011;44154;45.506;-122.806;2023-04-30T10:04:38;4.70;;;1.85;;
50853;SDS011;44154;45.506;-122.806;2023-04-30T10:07:09;8.55;;;2.10;;
50853;SDS011;44154;45.506;-122.806;2023-04-30T10:09:39;4.93;;;1.75;;
50853;SDS011;44154;45.506;-122.806;2023-04-30T10:12:31;5.40;;;1.73;;
50853;SDS011;44154;45.506;-122.806;2023-04-30T10:15:27;4.63;;;1.98;;
50853;SDS011;44154;45.506;-122.806;2023-04-30T10:18:04;3.20;;;1.45;;
50853;SDS011;44154;45.506;-122.806;2023-04-30T10:20:35;5.68;;;2.10;;
50853;SDS011;44154;45.506;-122.806;2023-04-30T10:23:03;4.40;;;1.70;;
50853;SDS011;44154;45.506;-122.806;2023-04-30T10:25:31;4.78;;;1.73;;
50853;SDS011;44154;45.506;-122.806;2023-04-30T10:27:58;5.32;;;1.75;;
50853;SDS011;44154;45.506;-122.806;2023-04-30T10:30:24;4.95;;;2.08;;
50853;SDS011;44154;45.506;-122.806;2023-04-30T10:33:02;5.00;;;1.90;;
50853;SDS011;44154;45.506;-122.806;2023-04-30T10:35:41;5.13;;;2.20;;
50853;SDS011;44154;45.506;-122.806;2023-04-30T10:38:21;6.72;;;2.22;;
50853;SDS011;44154;45.506;-122.806;2023-04-30T10:40:58;4.22;;;1.77;;
50853;SDS011;44154;45.506;-122.806;2023-04-30T10:43:26;5.63;;;1.88;;
50853;SDS011;44154;45.506;-122.806;2023-04-30T10:45:56;4.05;;;1.73;;
50853;SDS011;44154;45.506;-122.806;2023-04-30T10:48:23;5.13;;;1.90;;
50853;SDS011;44154;45.506;-122.806;2023-04-30T10:50:50;4.57;;;1.70;;
50853;SDS011;44154;45.506;-122.806;2023-04-30T10:53:19;5.22;;;2.00;;
50853;SDS011;44154;45.506;-122.806;2023-04-30T10:55:48;4.88;;;1.88;;
50853;SDS011;44154;45.506;-122.806;2023-04-30T11:01:01;4.88;;;2.38;;
50853;SDS011;44154;45.506;-122.806;2023-04-30T11:03:31;4.38;;;2.08;;
50853;SDS011;44154;45.506;-122.806;2023-04-30T11:06:00;3.92;;;1.75;;
50853;SDS011;44154;45.506;-122.806;2023-04-30T11:08:45;4.28;;;1.85;;
50853;SDS011;44154;45.506;-122.806;2023-04-30T11:11:16;4.78;;;1.90;;
50853;SDS011;44154;45.506;-122.806;2023-04-30T11:13:46;3.83;;;1.67;;
50853;SDS011;44154;45.506;-122.806;2023-04-30T11:16:16;5.15;;;2.03;;
50853;SDS011;44154;45.506;-122.806;2023-04-30T11:18:44;4.75;;;1.88;;
50853;SDS011;44154;45.506;-122.806;2023-04-30T11:21:11;4.47;;;1.55;;
50853;SDS011;44154;45.506;-122.806;2023-04-30T11:23:41;3.95;;;1.73;;
50853;SDS011;44154;45.506;-122.806;2023-04-30T11:26:08;4.53;;;1.65;;
50853;SDS011;44154;45.506;-122.806;2023-04-30T11:28:35;8.68;;;2.38;;
50853;SDS011;44154;45.506;-122.806;2023-04-30T11:31:03;6.13;;;1.80;;
50853;SDS011;44154;45.506;-122.806;2023-04-30T11:33:30;5.45;;;1.85;;
50853;SDS011;44154;45.506;-122.806;2023-04-30T11:35:57;4.40;;;1.58;;
50853;SDS011;44154;45.506;-122.806;2023-04-30T11:38:26;4.05;;;1.73;;
50853;SDS011;44154;45.506;-122.806;2023-04-30T11:40:59;4.63;;;1.80;;
50853;SDS011;44154;45.506;-122.806;2023-04-30T11:43:27;5.07;;;1.48;;
50853;SDS011;44154;45.506;-122.806;2023-04-30T11:48:43;4.65;;;2.05;;
50853;SDS011;44154;45.506;-122.806;2023-04-30T11:53:40;4.72;;;1.73;;
50853;SDS011;44154;45.506;-122.806;2023-04-30T11:56:07;4.85;;;1.95;;
50853;SDS011;44154;45.506;-122.806;2023-04-30T11:58:34;5.63;;;1.90;;
50853;SDS011;44154;45.506;-122.806;2023-04-30T12:01:05;4.40;;;1.83;;
50853;SDS011;44154;45.506;-122.806;2023-04-30T12:03:43;4.90;;;2.17;;
50853;SDS011;44154;45.506;-122.806;2023-04-30T12:06:10;4.60;;;1.85;;
50853;SDS011;44154;45.506;-122.806;2023-04-30T12:08:45;4.50;;;1.95;;
50853;SDS011;44154;45.506;-122.806;2023-04-30T12:11:18;5.75;;;1.77;;
50853;SDS011;44154;45.506;-122.806;2023-04-30T12:13:53;4.43;;;1.70;;
50853;SDS011;44154;45.506;-122.806;2023-04-30T12:16:21;4.57;;;1.63;;
50853;SDS011;44154;45.506;-122.806;2023-04-30T12:18:53;4.40;;;1.63;;
50853;SDS011;44154;45.506;-122.806;2023-04-30T12:21:20;3.80;;;1.80;;
50853;SDS011;44154;45.506;-122.806;2023-04-30T12:23:47;4.40;;;2.00;;
50853;SDS011;44154;45.506;-122.806;2023-04-30T12:26:13;4.88;;;1.98;;
50853;SDS011;44154;45.506;-122.806;2023-04-30T12:28:39;4.03;;;1.85;;
50853;SDS011;44154;45.506;-122.806;2023-04-30T12:31:06;3.85;;;1.55;;
50853;SDS011;44154;45.506;-122.806;2023-04-30T12:33:33;4.57;;;1.67;;
50853;SDS011;44154;45.506;-122.806;2023-04-30T12:36:00;4.93;;;1.92;;
50853;SDS011;44154;45.506;-122.806;2023-04-30T12:38:27;4.25;;;1.95;;
50853;SDS011;44154;45.506;-122.806;2023-04-30T12:40:53;3.97;;;1.55;;
50853;SDS011;44154;45.506;-122.806;2023-04-30T12:43:19;4.68;;;1.80;;
50853;SDS011;44154;45.506;-122.806;2023-04-30T12:48:16;4.95;;;1.70;;
50853;SDS011;44154;45.506;-122.806;2023-04-30T12:50:51;3.97;;;1.73;;
50853;SDS011;44154;45.506;-122.806;2023-04-30T12:53:18;3.75;;;1.45;;
50853;SDS011;44154;45.506;-122.806;2023-04-30T12:58:34;4.00;;;1.73;;
50853;SDS011;44154;45.506;-122.806;2023-04-30T13:01:00;4.40;;;1.63;;
50853;SDS011;44154;45.506;-122.806;2023-04-30T13:03:26;3.35;;;1.35;;
50853;SDS011;44154;45.506;-122.806;2023-04-30T13:05:53;5.40;;;1.80;;
50853;SDS011;44154;45.506;-122.806;2023-04-30T13:08:19;3.58;;;1.40;;
50853;SDS011;44154;45.506;-122.806;2023-04-30T13:10:46;4.40;;;1.48;;
50853;SDS011;44154;45.506;-122.806;2023-04-30T13:13:13;4.07;;;2.00;;
50853;SDS011;44154;45.506;-122.806;2023-04-30T13:15:43;4.25;;;2.10;;
50853;SDS011;44154;45.506;-122.806;2023-04-30T13:18:10;4.70;;;1.92;;
50853;SDS011;44154;45.506;-122.806;2023-04-30T13:20:36;4.20;;;1.80;;
50853;SDS011;44154;45.506;-122.806;2023-04-30T13:23:04;3.97;;;1.73;;
50853;SDS011;44154;45.506;-122.806;2023-04-30T13:25:31;4.90;;;1.92;;
50853;SDS011;44154;45.506;-122.806;2023-04-30T13:27:58;4.00;;;1.73;;
50853;SDS011;44154;45.506;-122.806;2023-04-30T13:30:24;4.80;;;1.70;;
50853;SDS011;44154;45.506;-122.806;2023-04-30T13:32:50;4.47;;;2.10;;
50853;SDS011;44154;45.506;-122.806;2023-04-30T13:35:17;3.72;;;1.45;;
50853;SDS011;44154;45.506;-122.806;2023-04-30T13:37:43;4.90;;;1.65;;
50853;SDS011;44154;45.506;-122.806;2023-04-30T13:40:12;4.45;;;1.77;;
50853;SDS011;44154;45.506;-122.806;2023-04-30T13:42:39;3.80;;;1.60;;
50853;SDS011;44154;45.506;-122.806;2023-04-30T13:45:07;5.43;;;1.83;;
50853;SDS011;44154;45.506;-122.806;2023-04-30T13:47:34;3.97;;;1.60;;
50853;SDS011;44154;45.506;-122.806;2023-04-30T13:50:01;4.78;;;2.00;;
50853;SDS011;44154;45.506;-122.806;2023-04-30T13:52:28;4.35;;;1.70;;
50853;SDS011;44154;45.506;-122.806;2023-04-30T13:54:54;4.50;;;2.00;;
50853;SDS011;44154;45.506;-122.806;2023-04-30T13:57:21;4.70;;;1.95;;
50853;SDS011;44154;45.506;-122.806;2023-04-30T13:59:48;4.55;;;1.77;;
50853;SDS011;44154;45.506;-122.806;2023-04-30T14:02:15;3.92;;;1.88;;
50853;SDS011;44154;45.506;-122.806;2023-04-30T14:04:41;4.03;;;1.90;;
50853;SDS011;44154;45.506;-122.806;2023-04-30T14:07:08;4.03;;;1.98;;
50853;SDS011;44154;45.506;-122.806;2023-04-30T14:09:34;3.75;;;1.70;;
50853;SDS011;44154;45.506;-122.806;2023-04-30T14:12:00;4.57;;;1.83;;
50853;SDS011;44154;45.506;-122.806;2023-04-30T14:14:27;2.88;;;1.40;;
50853;SDS011;44154;45.506;-122.806;2023-04-30T14:16:53;3.38;;;1.35;;
50853;SDS011;44154;45.506;-122.806;2023-04-30T14:19:20;4.40;;;1.73;;
50853;SDS011;44154;45.506;-122.806;2023-04-30T14:21:47;5.30;;;2.17;;
50853;SDS011;44154;45.506;-122.806;2023-04-30T14:24:13;4.55;;;1.88;;
50853;SDS011;44154;45.506;-122.806;2023-04-30T14:26:43;3.03;;;1.55;;
50853;SDS011;44154;45.506;-122.806;2023-04-30T14:29:12;4.70;;;1.83;;
50853;SDS011;44154;45.506;-122.806;2023-04-30T14:31:38;4.72;;;1.73;;
50853;SDS011;44154;45.506;-122.806;2023-04-30T14:34:05;7.50;;;1.80;;
50853;SDS011;44154;45.506;-122.806;2023-04-30T14:36:32;6.07;;;1.77;;
50853;SDS011;44154;45.506;-122.806;2023-04-30T14:38:59;5.47;;;1.80;;
50853;SDS011;44154;45.506;-122.806;2023-04-30T14:41:25;5.90;;;2.38;;
50853;SDS011;44154;45.506;-122.806;2023-04-30T14:43:51;5.28;;;1.88;;